createdAt,value
2023-04-02T12:02:03.612Z,5.88
2023-04-02T12:05:07.809Z,8.35
2023-04-02T12:08:11.481Z,11.27
2023-04-02T12:10:55.525Z,11.17
2023-04-02T12:13:51.162Z,7.60
2023-04-02T12:16:20.823Z,6.53
2023-04-02T12:18:55.124Z,14.03
2023-04-02T12:21:26.412Z,14.10
2023-04-02T12:23:58.541Z,11.70
2023-04-02T12:26:38.023Z,14.00
2023-04-02T12:29:18.294Z,10.40
2023-04-02T12:31:48.839Z,8.93
2023-04-02T12:34:24.873Z,8.17
2023-04-02T12:36:55.896Z,6.13
2023-04-02T12:39:27.501Z,7.00
2023-04-02T12:41:57.305Z,6.03
2023-04-02T12:44:28.905Z,10.40
2023-04-02T12:46:58.208Z,5.30
2023-04-02T12:49:37.073Z,5.47
2023-04-02T12:52:07.692Z,4.23
2023-04-02T12:54:45.039Z,6.47
2023-04-02T12:57:39.598Z,4.97
2023-04-02T13:00:32.434Z,4.90
2023-04-02T13:03:03.471Z,5.13
2023-04-02T13:05:41.484Z,6.73
2023-04-02T13:08:19.014Z,4.57
2023-04-02T13:10:54.490Z,10.07
2023-04-02T13:13:41.915Z,6.90
2023-04-02T13:16:28.281Z,8.50
2023-04-02T13:19:23.995Z,6.20
2023-04-02T13:21:55.223Z,6.83
2023-04-02T13:24:25.728Z,4.83
2023-04-02T13:26:56.998Z,7.43
2023-04-02T13:29:28.435Z,3.90
2023-04-02T13:32:00.035Z,9.03
2023-04-02T13:34:32.513Z,5.20
2023-04-02T13:37:02.608Z,8.67
2023-04-02T13:39:34.397Z,7.10
2023-04-02T13:42:06.662Z,5.70
2023-04-02T13:44:38.439Z,6.20
2023-04-02T13:47:07.483Z,7.57
2023-04-02T13:49:36.406Z,9.73
2023-04-02T13:52:11.265Z,4.63
2023-04-02T13:54:45.057Z,11.87
2023-04-02T13:57:14.221Z,7.93
2023-04-02T13:59:43.028Z,7.30
2023-04-02T14:02:14.333Z,8.97
2023-04-02T14:04:48.666Z,6.40
2023-04-02T14:07:39.370Z,9.43
2023-04-02T14:10:22.471Z,6.83
2023-04-02T14:13:07.218Z,8.93
2023-04-02T14:15:50.248Z,8.27
2023-04-02T14:18:36.759Z,11.13
2023-04-02T14:21:16.341Z,10.70
2023-04-02T14:24:08.406Z,6.63
2023-04-02T14:26:47.968Z,10.70
2023-04-02T14:29:22.238Z,8.50
2023-04-02T14:31:58.275Z,5.90
2023-04-02T14:34:35.614Z,9.30
2023-04-02T14:37:14.390Z,8.93
2023-04-02T14:39:57.508Z,16.93
2023-04-02T14:42:34.806Z,14.40
2023-04-02T14:45:09.343Z,16.13
2023-04-02T14:47:44.698Z,13.83
2023-04-02T14:50:18.543Z,25.53
2023-04-02T14:52:52.714Z,5.27
2023-04-02T14:55:28.595Z,5.60
2023-04-02T14:58:01.209Z,4.43
2023-04-02T15:00:37.933Z,4.80
2023-04-02T15:03:12.561Z,8.90
2023-04-02T15:05:44.670Z,9.63
2023-04-02T15:08:21.784Z,9.30
2023-04-02T15:11:06.620Z,6.53
2023-04-02T15:13:39.384Z,14.75
2023-04-02T15:16:13.456Z,12.87
2023-04-02T15:18:42.043Z,6.30
2023-04-02T15:21:58.102Z,9.80
2023-04-02T15:24:37.585Z,5.57
2023-04-02T15:27:25.148Z,21.27
2023-04-02T15:30:02.693Z,11.97
2023-04-02T15:32:38.387Z,5.30
2023-04-02T15:35:22.229Z,8.43
2023-04-02T15:38:01.284Z,9.00
2023-04-02T15:40:55.336Z,7.27
2023-04-02T15:43:30.558Z,4.77
2023-04-02T15:46:13.691Z,5.43
2023-04-02T15:49:04.764Z,6.37
2023-04-02T15:51:56.293Z,4.60
2023-04-02T15:54:38.820Z,7.07
2023-04-02T15:57:23.829Z,8.43
2023-04-02T16:00:16.202Z,5.40
2023-04-02T16:03:06.283Z,5.07
2023-04-02T16:05:43.407Z,9.50
2023-04-02T16:08:31.321Z,2.60
2023-04-02T16:11:00.169Z,4.53
2023-04-02T16:13:33.090Z,3.97
2023-04-02T16:16:07.385Z,3.03
2023-04-02T16:18:51.518Z,2.63
2023-04-02T16:21:23.856Z,3.33
2023-04-02T16:23:52.803Z,3.63
2023-04-02T16:26:42.191Z,1.73
2023-04-02T16:29:40.790Z,3.87
2023-04-02T16:32:26.745Z,5.43
2023-04-02T16:35:22.266Z,4.90
2023-04-02T16:37:59.339Z,3.00
2023-04-02T16:40:38.742Z,2.53
2023-04-02T16:43:19.527Z,5.73
2023-04-02T16:46:02.726Z,4.40
2023-04-02T16:48:42.594Z,3.90
2023-04-02T16:51:21.262Z,3.70
2023-04-02T16:54:02.157Z,3.60
2023-04-02T16:56:42.085Z,2.37
2023-04-02T16:59:21.067Z,3.40
2023-04-02T17:02:00.948Z,3.10
2023-04-02T17:04:54.148Z,2.13
2023-04-02T17:07:35.749Z,2.50
2023-04-02T17:10:22.628Z,2.70
2023-04-02T17:13:00.125Z,2.43
2023-04-02T17:15:37.085Z,1.77
2023-04-02T17:18:14.617Z,4.67
2023-04-02T17:20:45.217Z,3.30
2023-04-02T17:23:16.623Z,3.43
2023-04-02T17:25:51.879Z,5.57
2023-04-02T17:28:25.730Z,2.20
2023-04-02T17:30:57.109Z,3.03
2023-04-02T17:33:28.436Z,3.40
2023-04-02T17:36:16.922Z,2.50
2023-04-02T17:38:56.974Z,3.60
2023-04-02T17:41:36.296Z,2.30
2023-04-02T17:44:19.564Z,2.50
2023-04-02T17:46:54.902Z,4.83
2023-04-02T17:49:30.106Z,2.57
2023-04-02T17:52:05.283Z,2.70
2023-04-02T17:54:42.842Z,3.40
2023-04-02T17:57:24.708Z,2.70
2023-04-02T18:00:29.054Z,4.70
2023-04-02T18:03:16.671Z,1.73
2023-04-02T18:05:52.091Z,2.57
2023-04-02T18:08:28.726Z,3.33
2023-04-02T18:11:08.799Z,2.33
2023-04-02T18:13:42.238Z,2.17
2023-04-02T18:16:35.568Z,3.03
2023-04-02T18:19:19.289Z,1.67
2023-04-02T18:21:56.189Z,2.17
2023-04-02T18:24:46.552Z,2.17
2023-04-02T18:27:31.229Z,2.87
2023-04-02T18:30:12.000Z,2.10
2023-04-02T18:33:04.731Z,2.70
2023-04-02T18:35:35.181Z,2.80
2023-04-02T18:38:19.660Z,2.27
2023-04-02T18:41:03.811Z,1.97
2023-04-02T18:43:45.256Z,1.80
2023-04-02T18:46:22.582Z,2.30
2023-04-02T18:48:57.998Z,2.37
2023-04-02T18:51:29.734Z,2.73
2023-04-02T18:54:11.717Z,2.43
2023-04-02T18:56:43.179Z,2.00
2023-04-02T18:59:27.884Z,2.50
2023-04-02T19:01:59.806Z,1.67
2023-04-02T19:04:32.080Z,2.40
2023-04-02T19:07:05.969Z,2.23
2023-04-02T19:09:37.427Z,2.30
2023-04-02T19:12:18.708Z,1.90
2023-04-02T19:14:50.241Z,4.03
2023-04-02T19:17:31.596Z,2.97
2023-04-02T19:20:09.259Z,1.97
2023-04-02T19:22:45.578Z,2.57
2023-04-02T19:25:31.253Z,2.13
2023-04-02T19:28:13.263Z,2.00
2023-04-02T19:30:57.259Z,2.40
2023-04-02T19:33:37.573Z,2.40
2023-04-02T19:36:19.521Z,2.13
2023-04-02T19:38:58.790Z,2.23
2023-04-02T19:41:32.760Z,2.30
2023-04-02T19:44:03.102Z,2.30
2023-04-02T19:46:31.816Z,2.50
2023-04-02T19:49:09.028Z,2.10
2023-04-02T19:51:37.633Z,2.03
2023-04-02T19:54:06.651Z,1.73
2023-04-02T19:56:35.435Z,2.00
2023-04-02T19:59:17.023Z,2.30
2023-04-02T20:01:46.922Z,2.20
2023-04-02T20:04:16.094Z,2.27
2023-04-02T20:06:44.855Z,4.80
2023-04-02T20:09:13.337Z,1.93
2023-04-02T20:11:42.021Z,2.23
2023-04-02T20:14:12.059Z,2.57
2023-04-02T20:16:40.751Z,2.20
2023-04-02T20:19:09.404Z,1.70
2023-04-02T20:21:39.154Z,2.03
2023-04-02T20:24:08.272Z,2.10
2023-04-02T20:26:37.071Z,1.80
2023-04-02T20:29:06.001Z,2.27
2023-04-02T20:31:37.239Z,1.87
2023-04-02T20:34:08.538Z,2.27
2023-04-02T20:36:37.448Z,1.93
2023-04-02T20:39:07.967Z,2.23
2023-04-02T20:41:36.589Z,2.27
2023-04-02T20:44:05.166Z,1.73
2023-04-02T20:46:35.015Z,2.20
2023-04-02T20:49:04.007Z,2.07
2023-04-02T20:51:32.863Z,2.50
2023-04-02T20:54:01.836Z,2.60
2023-04-02T20:56:30.421Z,1.87
2023-04-02T20:58:59.165Z,2.13
2023-04-02T21:01:30.206Z,2.13
2023-04-02T21:04:02.285Z,1.73
2023-04-02T21:06:32.805Z,3.00
2023-04-02T21:09:02.794Z,1.70
2023-04-02T21:11:31.889Z,2.20
2023-04-02T21:14:00.440Z,2.30
2023-04-02T21:16:31.864Z,2.40
2023-04-02T21:19:04.004Z,2.20
2023-04-02T21:21:32.954Z,1.77
2023-04-02T21:24:03.808Z,2.17
2023-04-02T21:26:34.937Z,1.83
2023-04-02T21:29:04.272Z,2.03
2023-04-02T21:31:36.437Z,2.40
2023-04-02T21:34:07.416Z,2.70
2023-04-02T21:36:38.421Z,1.87
2023-04-02T21:39:09.161Z,2.13
2023-04-02T21:41:40.403Z,1.53
2023-04-02T21:44:10.989Z,1.70
2023-04-02T21:46:42.473Z,1.60
2023-04-02T21:49:13.644Z,1.97
2023-04-02T21:51:43.754Z,2.07
2023-04-02T21:54:12.561Z,1.70
2023-04-02T21:56:43.245Z,2.00
2023-04-02T21:59:14.097Z,1.80
2023-04-02T22:01:44.477Z,2.27
2023-04-02T22:04:17.786Z,2.13
2023-04-02T22:06:46.709Z,2.23
2023-04-02T22:09:18.024Z,2.23
2023-04-02T22:11:48.450Z,1.70
2023-04-02T22:14:17.289Z,1.30
2023-04-02T22:16:46.333Z,1.97
2023-04-02T22:19:17.528Z,2.07
2023-04-02T22:21:46.468Z,1.83
2023-04-02T22:24:18.794Z,1.53
2023-04-02T22:26:47.716Z,1.60
2023-04-02T22:29:16.928Z,1.77
2023-04-02T22:31:45.649Z,2.10
2023-04-02T22:34:15.782Z,1.87
2023-04-02T22:36:44.225Z,1.93
2023-04-02T22:39:13.362Z,1.93
2023-04-02T22:41:41.961Z,1.57
2023-04-02T22:44:15.294Z,1.43
2023-04-02T22:46:44.106Z,1.43
2023-04-02T22:49:15.919Z,1.90
2023-04-02T22:51:46.009Z,2.03
2023-04-02T22:54:14.731Z,1.80
2023-04-02T22:56:43.253Z,1.50
2023-04-02T22:59:11.751Z,1.83
2023-04-02T23:01:40.909Z,1.50
2023-04-02T23:04:10.189Z,1.70
2023-04-02T23:06:38.754Z,1.60
2023-04-02T23:09:08.959Z,1.70
2023-04-02T23:11:37.528Z,2.00
2023-04-02T23:14:06.239Z,1.60
2023-04-02T23:16:37.814Z,1.47
2023-04-02T23:19:06.392Z,1.70
2023-04-02T23:21:38.099Z,1.63
2023-04-02T23:24:08.346Z,1.97
2023-04-02T23:26:36.956Z,2.80
2023-04-02T23:29:06.446Z,2.20
2023-04-02T23:31:34.991Z,1.70
2023-04-02T23:34:03.516Z,1.63
2023-04-02T23:36:34.043Z,1.67
2023-04-02T23:39:05.576Z,2.07
2023-04-02T23:41:35.414Z,1.73
2023-04-02T23:44:05.267Z,2.13
2023-04-02T23:46:34.583Z,1.60
2023-04-02T23:49:03.792Z,2.60
2023-04-02T23:51:33.464Z,2.60
2023-04-02T23:54:02.093Z,1.70
2023-04-02T23:56:30.626Z,1.57
2023-04-02T23:59:00.529Z,1.70
